sensor_id;sensor_type;location;lat;lon;timestamp;P1;durP1;ratioP1;P2;durP2;ratioP2
33094;SDS011;19459;53.044;8.910;2023-08-06T00:00:47;6.72;;;4.35;;
33094;SDS011;19459;53.044;8.910;2023-08-06T00:03:21;6.50;;;4.50;;
33094;SDS011;19459;53.044;8.910;2023-08-06T00:05:47;5.80;;;4.70;;
33094;SDS011;19459;53.044;8.910;2023-08-06T00:08:13;5.63;;;4.40;;
33094;SDS011;19459;53.044;8.910;2023-08-06T00:10:39;7.57;;;5.50;;
33094;SDS011;19459;53.044;8.910;2023-08-06T00:13:06;8.88;;;6.10;;
33094;SDS011;19459;53.044;8.910;2023-08-06T00:15:32;9.40;;;6.25;;
33094;SDS011;19459;53.044;8.910;2023-08-06T00:18:01;9.57;;;7.18;;
33094;SDS011;19459;53.044;8.910;2023-08-06T00:20:27;11.77;;;6.68;;
33094;SDS011;19459;53.044;8.910;2023-08-06T00:23:01;9.45;;;6.78;;
33094;SDS011;19459;53.044;8.910;2023-08-06T00:25:27;8.00;;;5.75;;
33094;SDS011;19459;53.044;8.910;2023-08-06T00:27:53;8.20;;;5.68;;
33094;SDS011;19459;53.044;8.910;2023-08-06T00:30:19;7.57;;;5.50;;
33094;SDS011;19459;53.044;8.910;2023-08-06T00:32:47;9.70;;;6.65;;
33094;SDS011;19459;53.044;8.910;2023-08-06T00:35:18;11.45;;;6.03;;
33094;SDS011;19459;53.044;8.910;2023-08-06T00:37:44;9.05;;;6.10;;
33094;SDS011;19459;53.044;8.910;2023-08-06T00:40:11;6.93;;;4.97;;
33094;SDS011;19459;53.044;8.910;2023-08-06T00:42:36;6.38;;;4.72;;
33094;SDS011;19459;53.044;8.910;2023-08-06T00:45:02;5.82;;;4.53;;
33094;SDS011;19459;53.044;8.910;2023-08-06T00:47:29;8.75;;;4.75;;
33094;SDS011;19459;53.044;8.910;2023-08-06T00:49:54;6.80;;;4.15;;
33094;SDS011;19459;53.044;8.910;2023-08-06T00:52:20;7.53;;;4.82;;
33094;SDS011;19459;53.044;8.910;2023-08-06T00:54:46;6.63;;;3.58;;
33094;SDS011;19459;53.044;8.910;2023-08-06T00:57:12;5.13;;;4.13;;
33094;SDS011;19459;53.044;8.910;2023-08-06T00:59:38;5.55;;;4.20;;
33094;SDS011;19459;53.044;8.910;2023-08-06T01:02:03;6.53;;;3.83;;
33094;SDS011;19459;53.044;8.910;2023-08-06T01:04:30;6.82;;;4.30;;
33094;SDS011;19459;53.044;8.910;2023-08-06T01:09:45;5.18;;;4.03;;
33094;SDS011;19459;53.044;8.910;2023-08-06T01:15:28;5.40;;;3.65;;
33094;SDS011;19459;53.044;8.910;2023-08-06T01:17:58;5.70;;;4.15;;
33094;SDS011;19459;53.044;8.910;2023-08-06T01:20:28;5.30;;;3.97;;
33094;SDS011;19459;53.044;8.910;2023-08-06T01:22:55;5.50;;;3.33;;
33094;SDS011;19459;53.044;8.910;2023-08-06T01:25:21;7.10;;;4.15;;
33094;SDS011;19459;53.044;8.910;2023-08-06T01:28:03;5.00;;;3.75;;
33094;SDS011;19459;53.044;8.910;2023-08-06T01:30:37;6.82;;;3.85;;
33094;SDS011;19459;53.044;8.910;2023-08-06T01:33:06;4.63;;;4.13;;
33094;SDS011;19459;53.044;8.910;2023-08-06T01:35:39;8.05;;;3.97;;
33094;SDS011;19459;53.044;8.910;2023-08-06T01:38:07;4.20;;;3.67;;
33094;SDS011;19459;53.044;8.910;2023-08-06T01:40:33;4.20;;;3.75;;
33094;SDS011;19459;53.044;8.910;2023-08-06T01:43:00;4.20;;;3.80;;
33094;SDS011;19459;53.044;8.910;2023-08-06T01:45:25;5.25;;;3.92;;
33094;SDS011;19459;53.044;8.910;2023-08-06T01:47:51;6.18;;;3.72;;
33094;SDS011;19459;53.044;8.910;2023-08-06T01:50:17;5.90;;;4.00;;
33094;SDS011;19459;53.044;8.910;2023-08-06T01:52:43;6.80;;;4.07;;
33094;SDS011;19459;53.044;8.910;2023-08-06T01:55:09;6.72;;;4.13;;
33094;SDS011;19459;53.044;8.910;2023-08-06T01:57:37;5.55;;;3.58;;
33094;SDS011;19459;53.044;8.910;2023-08-06T02:00:04;7.22;;;3.83;;
33094;SDS011;19459;53.044;8.910;2023-08-06T02:02:38;5.93;;;3.85;;
33094;SDS011;19459;53.044;8.910;2023-08-06T02:05:05;5.63;;;4.35;;
33094;SDS011;19459;53.044;8.910;2023-08-06T02:07:31;5.10;;;3.95;;
33094;SDS011;19459;53.044;8.910;2023-08-06T02:09:57;6.00;;;4.20;;
33094;SDS011;19459;53.044;8.910;2023-08-06T02:12:23;4.13;;;3.42;;
33094;SDS011;19459;53.044;8.910;2023-08-06T02:14:49;7.32;;;3.90;;
33094;SDS011;19459;53.044;8.910;2023-08-06T02:17:15;5.07;;;3.97;;
33094;SDS011;19459;53.044;8.910;2023-08-06T02:19:40;5.10;;;3.53;;
33094;SDS011;19459;53.044;8.910;2023-08-06T02:22:08;6.40;;;4.32;;
33094;SDS011;19459;53.044;8.910;2023-08-06T02:24:34;5.25;;;3.88;;
33094;SDS011;19459;53.044;8.910;2023-08-06T02:26:59;6.82;;;5.38;;
33094;SDS011;19459;53.044;8.910;2023-08-06T02:29:25;8.25;;;4.50;;
33094;SDS011;19459;53.044;8.910;2023-08-06T02:31:51;5.28;;;4.28;;
33094;SDS011;19459;53.044;8.910;2023-08-06T02:34:16;7.45;;;4.43;;
33094;SDS011;19459;53.044;8.910;2023-08-06T02:36:42;4.97;;;3.97;;
33094;SDS011;19459;53.044;8.910;2023-08-06T02:39:08;5.32;;;4.55;;
33094;SDS011;19459;53.044;8.910;2023-08-06T02:41:34;5.65;;;4.50;;
33094;SDS011;19459;53.044;8.910;2023-08-06T02:44:00;6.20;;;3.88;;
33094;SDS011;19459;53.044;8.910;2023-08-06T02:46:26;5.47;;;3.72;;
33094;SDS011;19459;53.044;8.910;2023-08-06T02:48:52;4.65;;;4.00;;
33094;SDS011;19459;53.044;8.910;2023-08-06T02:51:17;10.05;;;4.75;;
33094;SDS011;19459;53.044;8.910;2023-08-06T02:53:43;6.88;;;4.05;;
33094;SDS011;19459;53.044;8.910;2023-08-06T02:56:09;5.10;;;4.57;;
33094;SDS011;19459;53.044;8.910;2023-08-06T02:58:34;9.55;;;4.90;;
33094;SDS011;19459;53.044;8.910;2023-08-06T03:01:01;4.65;;;4.15;;
33094;SDS011;19459;53.044;8.910;2023-08-06T03:03:30;5.88;;;4.80;;
33094;SDS011;19459;53.044;8.910;2023-08-06T03:05:56;5.22;;;4.43;;
33094;SDS011;19459;53.044;8.910;2023-08-06T03:08:22;5.63;;;5.05;;
33094;SDS011;19459;53.044;8.910;2023-08-06T03:10:49;5.68;;;4.20;;
33094;SDS011;19459;53.044;8.910;2023-08-06T03:13:16;7.60;;;5.05;;
33094;SDS011;19459;53.044;8.910;2023-08-06T03:15:42;6.90;;;4.90;;
33094;SDS011;19459;53.044;8.910;2023-08-06T03:18:09;6.45;;;5.13;;
33094;SDS011;19459;53.044;8.910;2023-08-06T03:20:34;6.82;;;4.20;;
33094;SDS011;19459;53.044;8.910;2023-08-06T03:23:00;5.07;;;4.57;;
33094;SDS011;19459;53.044;8.910;2023-08-06T03:25:26;6.05;;;4.85;;
33094;SDS011;19459;53.044;8.910;2023-08-06T03:27:51;10.90;;;6.07;;
33094;SDS011;19459;53.044;8.910;2023-08-06T03:30:17;8.57;;;5.80;;
33094;SDS011;19459;53.044;8.910;2023-08-06T03:32:43;8.85;;;6.32;;
33094;SDS011;19459;53.044;8.910;2023-08-06T03:35:09;7.20;;;5.88;;
33094;SDS011;19459;53.044;8.910;2023-08-06T03:37:34;8.25;;;6.80;;
33094;SDS011;19459;53.044;8.910;2023-08-06T03:40:00;10.65;;;8.07;;
33094;SDS011;19459;53.044;8.910;2023-08-06T03:42:26;11.13;;;7.60;;
33094;SDS011;19459;53.044;8.910;2023-08-06T03:44:52;12.43;;;8.30;;
33094;SDS011;19459;53.044;8.910;2023-08-06T03:47:17;9.73;;;8.05;;
33094;SDS011;19459;53.044;8.910;2023-08-06T03:49:43;9.68;;;8.68;;
33094;SDS011;19459;53.044;8.910;2023-08-06T03:52:09;11.30;;;9.32;;
33094;SDS011;19459;53.044;8.910;2023-08-06T03:54:34;12.45;;;9.13;;
33094;SDS011;19459;53.044;8.910;2023-08-06T03:57:00;11.00;;;8.30;;
33094;SDS011;19459;53.044;8.910;2023-08-06T03:59:26;13.27;;;9.35;;
33094;SDS011;19459;53.044;8.910;2023-08-06T04:01:52;16.95;;;8.82;;
33094;SDS011;19459;53.044;8.910;2023-08-06T04:04:17;14.52;;;8.88;;
33094;SDS011;19459;53.044;8.910;2023-08-06T04:06:43;11.70;;;8.02;;
33094;SDS011;19459;53.044;8.910;2023-08-06T04:09:09;9.60;;;7.82;;
33094;SDS011;19459;53.044;8.910;2023-08-06T04:11:35;12.05;;;9.70;;
33094;SDS011;19459;53.044;8.910;2023-08-06T04:14:00;10.02;;;8.32;;
33094;SDS011;19459;53.044;8.910;2023-08-06T04:16:26;14.40;;;9.52;;
33094;SDS011;19459;53.044;8.910;2023-08-06T04:18:52;10.57;;;8.77;;
33094;SDS011;19459;53.044;8.910;2023-08-06T04:21:20;11.75;;;9.20;;
33094;SDS011;19459;53.044;8.910;2023-08-06T04:23:46;12.48;;;9.35;;
33094;SDS011;19459;53.044;8.910;2023-08-06T04:26:12;16.55;;;11.15;;
33094;SDS011;19459;53.044;8.910;2023-08-06T04:28:37;14.23;;;10.18;;
33094;SDS011;19459;53.044;8.910;2023-08-06T04:31:03;16.70;;;11.07;;
33094;SDS011;19459;53.044;8.910;2023-08-06T04:33:29;16.10;;;10.43;;
33094;SDS011;19459;53.044;8.910;2023-08-06T04:35:55;16.77;;;12.02;;
33094;SDS011;19459;53.044;8.910;2023-08-06T04:38:22;13.80;;;10.57;;
33094;SDS011;19459;53.044;8.910;2023-08-06T04:40:50;17.95;;;11.55;;
33094;SDS011;19459;53.044;8.910;2023-08-06T04:43:16;16.52;;;11.43;;
33094;SDS011;19459;53.044;8.910;2023-08-06T04:45:48;14.55;;;10.85;;
33094;SDS011;19459;53.044;8.910;2023-08-06T04:48:18;14.45;;;10.68;;
33094;SDS011;19459;53.044;8.910;2023-08-06T04:50:44;15.32;;;10.80;;
33094;SDS011;19459;53.044;8.910;2023-08-06T04:53:11;13.68;;;11.10;;
33094;SDS011;19459;53.044;8.910;2023-08-06T04:55:37;20.85;;;11.85;;
33094;SDS011;19459;53.044;8.910;2023-08-06T04:58:03;20.05;;;11.57;;
33094;SDS011;19459;53.044;8.910;2023-08-06T05:00:29;16.58;;;11.25;;
33094;SDS011;19459;53.044;8.910;2023-08-06T05:02:55;16.92;;;11.80;;
33094;SDS011;19459;53.044;8.910;2023-08-06T05:05:21;14.02;;;12.02;;
33094;SDS011;19459;53.044;8.910;2023-08-06T05:07:49;15.65;;;11.23;;
33094;SDS011;19459;53.044;8.910;2023-08-06T05:10:15;16.83;;;12.25;;
33094;SDS011;19459;53.044;8.910;2023-08-06T05:12:41;16.92;;;11.32;;
33094;SDS011;19459;53.044;8.910;2023-08-06T05:15:07;15.57;;;11.05;;
33094;SDS011;19459;53.044;8.910;2023-08-06T05:17:33;16.98;;;13.07;;
33094;SDS011;19459;53.044;8.910;2023-08-06T05:19:59;21.38;;;12.38;;
33094;SDS011;19459;53.044;8.910;2023-08-06T05:22:25;17.75;;;11.90;;
33094;SDS011;19459;53.044;8.910;2023-08-06T05:24:51;16.70;;;11.95;;
33094;SDS011;19459;53.044;8.910;2023-08-06T05:27:17;16.38;;;11.93;;
33094;SDS011;19459;53.044;8.910;2023-08-06T05:29:44;17.00;;;12.70;;
33094;SDS011;19459;53.044;8.910;2023-08-06T05:32:13;19.23;;;12.20;;
33094;SDS011;19459;53.044;8.910;2023-08-06T05:34:38;20.00;;;13.38;;
33094;SDS011;19459;53.044;8.910;2023-08-06T05:37:04;16.30;;;12.88;;
33094;SDS011;19459;53.044;8.910;2023-08-06T05:39:30;15.02;;;11.38;;
33094;SDS011;19459;53.044;8.910;2023-08-06T05:41:56;15.15;;;11.73;;
33094;SDS011;19459;53.044;8.910;2023-08-06T05:44:23;15.40;;;12.57;;
33094;SDS011;19459;53.044;8.910;2023-08-06T05:46:49;20.05;;;11.90;;
33094;SDS011;19459;53.044;8.910;2023-08-06T05:49:15;15.40;;;11.27;;
33094;SDS011;19459;53.044;8.910;2023-08-06T05:51:41;14.40;;;10.93;;
33094;SDS011;19459;53.044;8.910;2023-08-06T05:54:07;16.52;;;12.13;;
33094;SDS011;19459;53.044;8.910;2023-08-06T05:56:33;15.07;;;11.35;;
33094;SDS011;19459;53.044;8.910;2023-08-06T05:58:58;15.13;;;11.05;;
33094;SDS011;19459;53.044;8.910;2023-08-06T06:01:24;17.30;;;11.27;;
33094;SDS011;19459;53.044;8.910;2023-08-06T06:03:53;15.57;;;11.88;;
33094;SDS011;19459;53.044;8.910;2023-08-06T06:06:19;13.95;;;11.07;;
33094;SDS011;19459;53.044;8.910;2023-08-06T06:08:45;14.85;;;11.23;;
33094;SDS011;19459;53.044;8.910;2023-08-06T06:11:11;17.42;;;10.98;;
33094;SDS011;19459;53.044;8.910;2023-08-06T06:13:37;26.48;;;11.77;;
33094;SDS011;19459;53.044;8.910;2023-08-06T06:16:02;13.23;;;10.68;;
33094;SDS011;19459;53.044;8.910;2023-08-06T06:18:28;14.18;;;10.95;;
33094;SDS011;19459;53.044;8.910;2023-08-06T06:20:54;18.27;;;11.60;;
33094;SDS011;19459;53.044;8.910;2023-08-06T06:23:20;13.82;;;10.63;;
33094;SDS011;19459;53.044;8.910;2023-08-06T06:25:49;11.38;;;9.30;;
33094;SDS011;19459;53.044;8.910;2023-08-06T06:28:18;13.40;;;10.45;;
33094;SDS011;19459;53.044;8.910;2023-08-06T06:30:44;12.82;;;9.75;;
33094;SDS011;19459;53.044;8.910;2023-08-06T06:33:10;11.15;;;9.32;;
33094;SDS011;19459;53.044;8.910;2023-08-06T06:35:36;13.82;;;9.85;;
33094;SDS011;19459;53.044;8.910;2023-08-06T06:38:02;15.60;;;9.43;;
33094;SDS011;19459;53.044;8.910;2023-08-06T06:40:28;11.10;;;9.32;;
33094;SDS011;19459;53.044;8.910;2023-08-06T06:42:54;11.35;;;8.65;;
33094;SDS011;19459;53.044;8.910;2023-08-06T06:45:19;13.15;;;9.82;;
33094;SDS011;19459;53.044;8.910;2023-08-06T06:47:45;11.75;;;9.15;;
33094;SDS011;19459;53.044;8.910;2023-08-06T06:50:11;10.05;;;8.32;;
33094;SDS011;19459;53.044;8.910;2023-08-06T06:52:37;10.05;;;7.72;;
33094;SDS011;19459;53.044;8.910;2023-08-06T06:55:03;12.73;;;9.25;;
33094;SDS011;19459;53.044;8.910;2023-08-06T06:57:29;9.65;;;8.25;;
33094;SDS011;19459;53.044;8.910;2023-08-06T06:59:55;9.45;;;7.80;;
33094;SDS011;19459;53.044;8.910;2023-08-06T07:02:21;8.52;;;7.38;;
33094;SDS011;19459;53.044;8.910;2023-08-06T07:04:46;10.90;;;7.85;;
33094;SDS011;19459;53.044;8.910;2023-08-06T07:07:12;11.43;;;7.68;;
33094;SDS011;19459;53.044;8.910;2023-08-06T07:09:38;9.85;;;7.68;;
33094;SDS011;19459;53.044;8.910;2023-08-06T07:12:04;8.00;;;7.05;;
33094;SDS011;19459;53.044;8.910;2023-08-06T07:14:30;10.02;;;7.90;;
33094;SDS011;19459;53.044;8.910;2023-08-06T07:16:56;10.80;;;6.72;;
33094;SDS011;19459;53.044;8.910;2023-08-06T07:19:21;8.27;;;7.18;;
33094;SDS011;19459;53.044;8.910;2023-08-06T07:21:48;9.15;;;7.32;;
33094;SDS011;19459;53.044;8.910;2023-08-06T07:24:14;9.82;;;7.72;;
33094;SDS011;19459;53.044;8.910;2023-08-06T07:26:39;8.38;;;6.57;;
33094;SDS011;19459;53.044;8.910;2023-08-06T07:29:05;9.07;;;7.75;;
33094;SDS011;19459;53.044;8.910;2023-08-06T07:31:31;9.77;;;7.45;;
33094;SDS011;19459;53.044;8.910;2023-08-06T07:33:57;10.77;;;6.68;;
33094;SDS011;19459;53.044;8.910;2023-08-06T07:36:23;8.75;;;6.90;;
33094;SDS011;19459;53.044;8.910;2023-08-06T07:38:48;7.18;;;6.40;;
33094;SDS011;19459;53.044;8.910;2023-08-06T07:41:20;7.50;;;6.03;;
33094;SDS011;19459;53.044;8.910;2023-08-06T07:43:47;11.55;;;6.18;;
33094;SDS011;19459;53.044;8.910;2023-08-06T07:46:13;7.93;;;5.05;;
33094;SDS011;19459;53.044;8.910;2023-08-06T07:48:39;7.15;;;6.15;;
33094;SDS011;19459;53.044;8.910;2023-08-06T07:51:05;5.63;;;5.05;;
33094;SDS011;19459;53.044;8.910;2023-08-06T07:53:30;7.55;;;5.82;;
33094;SDS011;19459;53.044;8.910;2023-08-06T07:55:56;6.40;;;5.00;;
33094;SDS011;19459;53.044;8.910;2023-08-06T07:58:23;6.10;;;5.15;;
33094;SDS011;19459;53.044;8.910;2023-08-06T08:00:50;8.07;;;4.95;;
33094;SDS011;19459;53.044;8.910;2023-08-06T08:03:16;6.30;;;5.57;;
33094;SDS011;19459;53.044;8.910;2023-08-06T08:05:42;5.40;;;4.60;;
33094;SDS011;19459;53.044;8.910;2023-08-06T08:08:09;6.45;;;5.60;;
33094;SDS011;19459;53.044;8.910;2023-08-06T08:10:35;5.75;;;4.47;;
33094;SDS011;19459;53.044;8.910;2023-08-06T08:13:02;5.82;;;4.60;;
33094;SDS011;19459;53.044;8.910;2023-08-06T08:15:29;5.55;;;4.45;;
33094;SDS011;19459;53.044;8.910;2023-08-06T08:17:56;6.35;;;4.93;;
33094;SDS011;19459;53.044;8.910;2023-08-06T08:20:23;4.93;;;4.38;;
33094;SDS011;19459;53.044;8.910;2023-08-06T08:22:49;7.15;;;4.60;;
33094;SDS011;19459;53.044;8.910;2023-08-06T08:25:15;7.00;;;4.53;;
33094;SDS011;19459;53.044;8.910;2023-08-06T08:27:41;10.02;;;4.68;;
33094;SDS011;19459;53.044;8.910;2023-08-06T08:30:07;5.30;;;4.15;;
33094;SDS011;19459;53.044;8.910;2023-08-06T08:32:34;5.32;;;4.45;;
33094;SDS011;19459;53.044;8.910;2023-08-06T08:34:59;5.30;;;4.30;;
33094;SDS011;19459;53.044;8.910;2023-08-06T08:37:25;3.95;;;3.55;;
33094;SDS011;19459;53.044;8.910;2023-08-06T08:39:51;8.25;;;4.30;;
33094;SDS011;19459;53.044;8.910;2023-08-06T08:42:17;4.72;;;4.22;;
33094;SDS011;19459;53.044;8.910;2023-08-06T08:44:43;5.38;;;4.20;;
33094;SDS011;19459;53.044;8.910;2023-08-06T08:47:10;6.32;;;3.92;;
33094;SDS011;19459;53.044;8.910;2023-08-06T08:49:36;4.70;;;3.88;;
33094;SDS011;19459;53.044;8.910;2023-08-06T08:52:03;10.10;;;4.03;;
33094;SDS011;19459;53.044;8.910;2023-08-06T08:54:31;4.50;;;3.03;;
33094;SDS011;19459;53.044;8.910;2023-08-06T08:56:58;7.07;;;3.53;;
33094;SDS011;19459;53.044;8.910;2023-08-06T08:59:25;4.00;;;3.15;;
33094;SDS011;19459;53.044;8.910;2023-08-06T09:01:53;3.78;;;3.30;;
33094;SDS011;19459;53.044;8.910;2023-08-06T09:04:19;3.58;;;3.22;;
33094;SDS011;19459;53.044;8.910;2023-08-06T09:06:47;5.13;;;3.47;;
33094;SDS011;19459;53.044;8.910;2023-08-06T09:09:26;4.07;;;3.38;;
33094;SDS011;19459;53.044;8.910;2023-08-06T09:12:03;4.13;;;2.60;;
33094;SDS011;19459;53.044;8.910;2023-08-06T09:14:37;5.05;;;3.33;;
33094;SDS011;19459;53.044;8.910;2023-08-06T09:17:03;5.38;;;2.72;;
33094;SDS011;19459;53.044;8.910;2023-08-06T09:19:31;3.30;;;3.00;;
33094;SDS011;19459;53.044;8.910;2023-08-06T09:21:57;3.95;;;2.90;;
33094;SDS011;19459;53.044;8.910;2023-08-06T09:24:23;3.65;;;3.17;;
33094;SDS011;19459;53.044;8.910;2023-08-06T09:26:51;3.15;;;2.85;;
33094;SDS011;19459;53.044;8.910;2023-08-06T09:29:17;3.25;;;2.88;;
33094;SDS011;19459;53.044;8.910;2023-08-06T09:31:52;6.13;;;2.92;;
33094;SDS011;19459;53.044;8.910;2023-08-06T09:34:22;6.70;;;2.50;;
33094;SDS011;19459;53.044;8.910;2023-08-06T09:36:51;3.88;;;2.95;;
33094;SDS011;19459;53.044;8.910;2023-08-06T09:39:19;2.70;;;2.50;;
33094;SDS011;19459;53.044;8.910;2023-08-06T09:41:52;5.63;;;2.65;;
33094;SDS011;19459;53.044;8.910;2023-08-06T09:44:26;3.00;;;2.67;;
33094;SDS011;19459;53.044;8.910;2023-08-06T09:46:57;2.53;;;2.28;;
33094;SDS011;19459;53.044;8.910;2023-08-06T09:49:25;3.33;;;2.13;;
33094;SDS011;19459;53.044;8.910;2023-08-06T09:52:13;3.95;;;2.30;;
33094;SDS011;19459;53.044;8.910;2023-08-06T09:54:40;3.28;;;2.60;;
33094;SDS011;19459;53.044;8.910;2023-08-06T09:57:08;2.83;;;1.65;;
33094;SDS011;19459;53.044;8.910;2023-08-06T09:59:37;1.52;;;1.42;;
33094;SDS011;19459;53.044;8.910;2023-08-06T10:02:07;2.28;;;1.75;;
33094;SDS011;19459;53.044;8.910;2023-08-06T10:04:38;3.03;;;2.30;;
33094;SDS011;19459;53.044;8.910;2023-08-06T10:07:05;2.63;;;2.33;;
33094;SDS011;19459;53.044;8.910;2023-08-06T10:09:30;2.47;;;1.70;;
33094;SDS011;19459;53.044;8.910;2023-08-06T10:11:56;3.30;;;2.20;;
33094;SDS011;19459;53.044;8.910;2023-08-06T10:14:24;2.05;;;1.80;;
33094;SDS011;19459;53.044;8.910;2023-08-06T10:16:54;1.48;;;1.38;;
33094;SDS011;19459;53.044;8.910;2023-08-06T10:19:23;1.98;;;1.88;;
33094;SDS011;19459;53.044;8.910;2023-08-06T10:24:45;2.22;;;1.67;;
33094;SDS011;19459;53.044;8.910;2023-08-06T10:27:27;2.03;;;1.80;;
33094;SDS011;19459;53.044;8.910;2023-08-06T10:30:25;4.00;;;1.80;;
33094;SDS011;19459;53.044;8.910;2023-08-06T10:32:52;1.77;;;1.63;;
33094;SDS011;19459;53.044;8.910;2023-08-06T10:38:26;1.75;;;1.45;;
33094;SDS011;19459;53.044;8.910;2023-08-06T10:46:11;3.45;;;1.60;;
33094;SDS011;19459;53.044;8.910;2023-08-06T10:48:49;1.83;;;1.30;;
33094;SDS011;19459;53.044;8.910;2023-08-06T10:51:14;2.42;;;1.70;;
33094;SDS011;19459;53.044;8.910;2023-08-06T10:53:47;2.95;;;1.75;;
33094;SDS011;19459;53.044;8.910;2023-08-06T10:56:15;3.33;;;1.30;;
33094;SDS011;19459;53.044;8.910;2023-08-06T10:58:43;1.67;;;1.58;;
33094;SDS011;19459;53.044;8.910;2023-08-06T11:01:11;3.53;;;1.65;;
33094;SDS011;19459;53.044;8.910;2023-08-06T11:03:38;2.75;;;1.73;;
33094;SDS011;19459;53.044;8.910;2023-08-06T11:06:06;2.33;;;1.50;;
33094;SDS011;19459;53.044;8.910;2023-08-06T11:08:34;2.92;;;1.75;;
33094;SDS011;19459;53.044;8.910;2023-08-06T11:11:08;2.63;;;1.80;;
33094;SDS011;19459;53.044;8.910;2023-08-06T11:13:42;1.92;;;1.73;;
33094;SDS011;19459;53.044;8.910;2023-08-06T11:16:15;2.80;;;1.85;;
33094;SDS011;19459;53.044;8.910;2023-08-06T11:18:46;2.30;;;1.75;;
33094;SDS011;19459;53.044;8.910;2023-08-06T11:21:12;3.40;;;1.73;;
33094;SDS011;19459;53.044;8.910;2023-08-06T11:23:38;2.05;;;1.75;;
33094;SDS011;19459;53.044;8.910;2023-08-06T11:26:05;2.58;;;2.25;;
33094;SDS011;19459;53.044;8.910;2023-08-06T11:28:32;4.53;;;2.05;;
33094;SDS011;19459;53.044;8.910;2023-08-06T11:30:58;3.10;;;1.77;;
33094;SDS011;19459;53.044;8.910;2023-08-06T11:33:27;2.92;;;1.40;;
33094;SDS011;19459;53.044;8.910;2023-08-06T11:35:57;2.70;;;2.08;;
33094;SDS011;19459;53.044;8.910;2023-08-06T11:38:28;2.92;;;1.77;;
33094;SDS011;19459;53.044;8.910;2023-08-06T11:40:54;2.65;;;2.00;;
33094;SDS011;19459;53.044;8.910;2023-08-06T11:43:20;2.17;;;1.98;;
33094;SDS011;19459;53.044;8.910;2023-08-06T11:45:47;4.22;;;2.00;;
33094;SDS011;19459;53.044;8.910;2023-08-06T11:48:18;2.22;;;2.00;;
33094;SDS011;19459;53.044;8.910;2023-08-06T11:50:44;2.08;;;1.88;;
33094;SDS011;19459;53.044;8.910;2023-08-06T11:53:12;4.10;;;1.85;;
33094;SDS011;19459;53.044;8.910;2023-08-06T11:55:39;3.33;;;1.98;;
33094;SDS011;19459;53.044;8.910;2023-08-06T11:58:05;2.38;;;2.00;;
33094;SDS011;19459;53.044;8.910;2023-08-06T12:00:31;2.47;;;1.80;;
33094;SDS011;19459;53.044;8.910;2023-08-06T12:02:57;2.65;;;1.63;;
33094;SDS011;19459;53.044;8.910;2023-08-06T12:05:28;4.38;;;1.98;;
33094;SDS011;19459;53.044;8.910;2023-08-06T12:07:56;1.58;;;1.48;;
33094;SDS011;19459;53.044;8.910;2023-08-06T12:10:25;1.85;;;1.50;;
33094;SDS011;19459;53.044;8.910;2023-08-06T12:12:55;3.50;;;1.92;;
33094;SDS011;19459;53.044;8.910;2023-08-06T12:15:21;4.22;;;1.98;;
33094;SDS011;19459;53.044;8.910;2023-08-06T12:17:49;1.85;;;1.70;;
33094;SDS011;19459;53.044;8.910;2023-08-06T12:20:15;1.70;;;1.60;;
33094;SDS011;19459;53.044;8.910;2023-08-06T12:22:41;4.10;;;2.10;;
33094;SDS011;19459;53.044;8.910;2023-08-06T12:25:08;2.05;;;1.85;;
33094;SDS011;19459;53.044;8.910;2023-08-06T12:27:41;3.63;;;1.80;;
33094;SDS011;19459;53.044;8.910;2023-08-06T12:30:09;3.13;;;1.92;;
33094;SDS011;19459;53.044;8.910;2023-08-06T12:32:37;2.70;;;2.20;;
33094;SDS011;19459;53.044;8.910;2023-08-06T12:35:04;2.75;;;1.80;;
33094;SDS011;19459;53.044;8.910;2023-08-06T12:37:32;4.35;;;1.73;;
33094;SDS011;19459;53.044;8.910;2023-08-06T12:39:58;3.05;;;1.90;;
33094;SDS011;19459;53.044;8.910;2023-08-06T12:42:24;3.25;;;1.63;;
33094;SDS011;19459;53.044;8.910;2023-08-06T12:44:50;1.95;;;1.75;;
33094;SDS011;19459;53.044;8.910;2023-08-06T12:47:17;4.63;;;1.35;;
33094;SDS011;19459;53.044;8.910;2023-08-06T12:49:43;3.15;;;1.60;;
33094;SDS011;19459;53.044;8.910;2023-08-06T12:52:09;3.30;;;1.70;;
33094;SDS011;19459;53.044;8.910;2023-08-06T12:54:37;2.80;;;1.83;;
33094;SDS011;19459;53.044;8.910;2023-08-06T12:57:03;2.58;;;2.00;;
33094;SDS011;19459;53.044;8.910;2023-08-06T12:59:30;2.13;;;1.92;;
33094;SDS011;19459;53.044;8.910;2023-08-06T13:01:56;1.85;;;1.63;;
33094;SDS011;19459;53.044;8.910;2023-08-06T13:04:21;2.33;;;1.50;;
33094;SDS011;19459;53.044;8.910;2023-08-06T13:06:47;4.15;;;2.08;;
33094;SDS011;19459;53.044;8.910;2023-08-06T13:09:13;1.73;;;1.60;;
33094;SDS011;19459;53.044;8.910;2023-08-06T13:11:40;2.58;;;1.92;;
33094;SDS011;19459;53.044;8.910;2023-08-06T13:14:08;3.95;;;1.95;;
33094;SDS011;19459;53.044;8.910;2023-08-06T13:16:36;2.38;;;2.17;;
33094;SDS011;19459;53.044;8.910;2023-08-06T13:19:03;3.35;;;2.17;;
33094;SDS011;19459;53.044;8.910;2023-08-06T13:21:34;1.73;;;1.63;;
33094;SDS011;19459;53.044;8.910;2023-08-06T13:24:02;1.63;;;1.30;;
33094;SDS011;19459;53.044;8.910;2023-08-06T13:26:29;2.97;;;2.03;;
33094;SDS011;19459;53.044;8.910;2023-08-06T13:28:58;3.03;;;1.88;;
33094;SDS011;19459;53.044;8.910;2023-08-06T13:31:25;3.25;;;1.73;;
33094;SDS011;19459;53.044;8.910;2023-08-06T13:33:54;2.00;;;1.67;;
33094;SDS011;19459;53.044;8.910;2023-08-06T13:36:21;4.47;;;3.03;;
33094;SDS011;19459;53.044;8.910;2023-08-06T13:38:51;2.80;;;2.13;;
33094;SDS011;19459;53.044;8.910;2023-08-06T13:41:17;2.60;;;1.80;;
33094;SDS011;19459;53.044;8.910;2023-08-06T13:43:43;2.05;;;1.80;;
33094;SDS011;19459;53.044;8.910;2023-08-06T13:46:12;2.00;;;1.80;;
33094;SDS011;19459;53.044;8.910;2023-08-06T13:48:41;2.10;;;1.80;;
33094;SDS011;19459;53.044;8.910;2023-08-06T13:51:09;2.45;;;1.85;;
33094;SDS011;19459;53.044;8.910;2023-08-06T13:53:36;1.77;;;1.67;;
33094;SDS011;19459;53.044;8.910;2023-08-06T13:56:03;3.17;;;2.38;;
33094;SDS011;19459;53.044;8.910;2023-08-06T13:58:33;2.67;;;1.90;;
33094;SDS011;19459;53.044;8.910;2023-08-06T14:00:59;2.08;;;1.88;;
33094;SDS011;19459;53.044;8.910;2023-08-06T14:03:25;2.72;;;1.75;;
33094;SDS011;19459;53.044;8.910;2023-08-06T14:05:50;3.20;;;2.35;;
33094;SDS011;19459;53.044;8.910;2023-08-06T14:08:16;2.47;;;2.17;;
33094;SDS011;19459;53.044;8.910;2023-08-06T14:10:45;2.13;;;1.70;;
33094;SDS011;19459;53.044;8.910;2023-08-06T14:13:14;3.03;;;1.77;;
33094;SDS011;19459;53.044;8.910;2023-08-06T14:15:39;2.22;;;2.00;;
33094;SDS011;19459;53.044;8.910;2023-08-06T14:18:06;3.83;;;2.25;;
33094;SDS011;19459;53.044;8.910;2023-08-06T14:20:35;1.83;;;1.73;;
33094;SDS011;19459;53.044;8.910;2023-08-06T14:23:01;3.13;;;2.22;;
33094;SDS011;19459;53.044;8.910;2023-08-06T14:25:27;4.68;;;1.98;;
33094;SDS011;19459;53.044;8.910;2023-08-06T14:27:52;1.85;;;1.75;;
33094;SDS011;19459;53.044;8.910;2023-08-06T14:30:18;2.00;;;1.77;;
33094;SDS011;19459;53.044;8.910;2023-08-06T14:32:46;3.55;;;2.13;;
33094;SDS011;19459;53.044;8.910;2023-08-06T14:35:12;5.53;;;1.92;;
33094;SDS011;19459;53.044;8.910;2023-08-06T14:37:38;2.42;;;1.70;;
33094;SDS011;19459;53.044;8.910;2023-08-06T14:40:06;4.15;;;2.10;;
33094;SDS011;19459;53.044;8.910;2023-08-06T14:42:32;4.32;;;2.05;;
33094;SDS011;19459;53.044;8.910;2023-08-06T14:44:58;3.17;;;1.98;;
33094;SDS011;19459;53.044;8.910;2023-08-06T14:47:24;6.03;;;1.95;;
33094;SDS011;19459;53.044;8.910;2023-08-06T14:49:49;4.53;;;3.17;;
33094;SDS011;19459;53.044;8.910;2023-08-06T14:52:21;2.50;;;2.17;;
33094;SDS011;19459;53.044;8.910;2023-08-06T14:54:46;2.15;;;2.00;;
33094;SDS011;19459;53.044;8.910;2023-08-06T14:57:12;3.30;;;2.25;;
33094;SDS011;19459;53.044;8.910;2023-08-06T14:59:39;2.80;;;2.45;;